sensor_id;sensor_type;location;lat;lon;timestamp;pressure;altitude;pressure_sealevel;temperature;humidity
11525;BME280;5819;49.648;8.330;2023-03-16T00:00:06;100955.56;;;1.48;100.00
11525;BME280;5819;49.648;8.330;2023-03-16T00:02:40;100957.22;;;1.38;100.00
11525;BME280;5819;49.648;8.330;2023-03-16T00:05:08;100952.94;;;1.34;100.00
11525;BME280;5819;49.648;8.330;2023-03-16T00:07:36;100950.38;;;1.37;100.00
11525;BME280;5819;49.648;8.330;2023-03-16T00:10:06;100946.09;;;1.34;100.00
11525;BME280;5819;49.648;8.330;2023-03-16T00:12:34;100954.66;;;1.32;100.00
11525;BME280;5819;49.648;8.330;2023-03-16T00:15:04;100951.16;;;1.16;100.00
11525;BME280;5819;49.648;8.330;2023-03-16T00:17:32;100958.78;;;1.13;100.00
11525;BME280;5819;49.648;8.330;2023-03-16T00:20:00;100958.75;;;1.03;100.00
11525;BME280;5819;49.648;8.330;2023-03-16T00:22:32;100959.59;;;1.00;100.00
11525;BME280;5819;49.648;8.330;2023-03-16T00:25:01;100957.88;;;1.01;100.00
11525;BME280;5819;49.648;8.330;2023-03-16T00:27:30;100955.31;;;1.01;100.00
11525;BME280;5819;49.648;8.330;2023-03-16T00:29:58;100961.31;;;1.03;100.00
11525;BME280;5819;49.648;8.330;2023-03-16T00:32:33;100960.50;;;1.08;100.00
11525;BME280;5819;49.648;8.330;2023-03-16T00:35:03;100964.75;;;1.06;100.00
11525;BME280;5819;49.648;8.330;2023-03-16T00:37:35;100957.03;;;1.05;100.00
11525;BME280;5819;49.648;8.330;2023-03-16T00:40:07;100955.31;;;1.01;100.00
11525;BME280;5819;49.648;8.330;2023-03-16T00:42:37;100955.31;;;0.96;100.00
11525;BME280;5819;49.648;8.330;2023-03-16T00:45:06;100951.88;;;0.96;100.00
11525;BME280;5819;49.648;8.330;2023-03-16T00:47:38;100953.63;;;1.03;100.00
11525;BME280;5819;49.648;8.330;2023-03-16T00:50:08;100956.22;;;1.07;100.00
11525;BME280;5819;49.648;8.330;2023-03-16T00:52:37;100951.09;;;1.07;100.00
11525;BME280;5819;49.648;8.330;2023-03-16T00:55:05;100942.56;;;1.07;100.00
11525;BME280;5819;49.648;8.330;2023-03-16T00:57:34;100939.94;;;0.99;100.00
11525;BME280;5819;49.648;8.330;2023-03-16T01:00:04;100939.06;;;0.96;100.00
11525;BME280;5819;49.648;8.330;2023-03-16T01:02:39;100937.34;;;0.91;100.00
11525;BME280;5819;49.648;8.330;2023-03-16T01:05:08;100941.59;;;0.88;100.00
11525;BME280;5819;49.648;8.330;2023-03-16T01:07:36;100936.47;;;0.88;100.00
11525;BME280;5819;49.648;8.330;2023-03-16T01:10:05;100928.72;;;0.80;100.00
11525;BME280;5819;49.648;8.330;2023-03-16T01:12:33;100932.09;;;0.75;100.00
11525;BME280;5819;49.648;8.330;2023-03-16T01:15:01;100933.84;;;0.76;100.00
11525;BME280;5819;49.648;8.330;2023-03-16T01:17:30;100942.41;;;0.82;100.00
11525;BME280;5819;49.648;8.330;2023-03-16T01:20:03;100939.03;;;0.89;100.00
11525;BME280;5819;49.648;8.330;2023-03-16T01:22:37;100939.03;;;0.92;100.00
11525;BME280;5819;49.648;8.330;2023-03-16T01:25:06;100939.06;;;0.96;100.00
11525;BME280;5819;49.648;8.330;2023-03-16T01:27:35;100940.75;;;0.93;100.00
11525;BME280;5819;49.648;8.330;2023-03-16T01:30:04;100941.59;;;0.91;100.00
11525;BME280;5819;49.648;8.330;2023-03-16T01:32:33;100943.28;;;0.89;100.00
11525;BME280;5819;49.648;8.330;2023-03-16T01:35:03;100938.19;;;0.93;100.00
11525;BME280;5819;49.648;8.330;2023-03-16T01:37:31;100927.94;;;0.93;100.00
11525;BME280;5819;49.648;8.330;2023-03-16T01:40:11;100931.34;;;0.92;100.00
11525;BME280;5819;49.648;8.330;2023-03-16T01:42:46;100927.94;;;0.87;100.00
11525;BME280;5819;49.648;8.330;2023-03-16T01:48:24;100920.13;;;0.69;100.00
11525;BME280;5819;49.648;8.330;2023-03-16T01:50:55;100922.72;;;0.75;100.00
11525;BME280;5819;49.648;8.330;2023-03-16T01:53:23;100911.59;;;0.67;100.00
11525;BME280;5819;49.648;8.330;2023-03-16T01:55:52;100920.94;;;0.62;100.00
11525;BME280;5819;49.648;8.330;2023-03-16T01:58:21;100923.50;;;0.62;100.00
11525;BME280;5819;49.648;8.330;2023-03-16T02:00:49;100920.09;;;0.63;100.00
11525;BME280;5819;49.648;8.330;2023-03-16T02:03:21;100910.72;;;0.67;100.00
11525;BME280;5819;49.648;8.330;2023-03-16T02:06:05;100903.91;;;0.69;100.00
11525;BME280;5819;49.648;8.330;2023-03-16T02:08:39;100897.97;;;0.71;100.00
11525;BME280;5819;49.648;8.330;2023-03-16T02:11:09;100895.41;;;0.71;100.00
11525;BME280;5819;49.648;8.330;2023-03-16T02:14:05;100891.09;;;0.64;100.00
11525;BME280;5819;49.648;8.330;2023-03-16T02:16:34;100889.38;;;0.66;100.00
11525;BME280;5819;49.648;8.330;2023-03-16T02:19:08;100889.31;;;0.57;100.00
11525;BME280;5819;49.648;8.330;2023-03-16T02:21:43;100885.09;;;0.62;100.00
11525;BME280;5819;49.648;8.330;2023-03-16T02:24:14;100880.00;;;0.67;100.00
11525;BME280;5819;49.648;8.330;2023-03-16T02:26:45;100873.16;;;0.63;100.00
11525;BME280;5819;49.648;8.330;2023-03-16T02:29:29;100872.31;;;0.64;100.00
11525;BME280;5819;49.648;8.330;2023-03-16T02:32:02;100863.81;;;0.68;100.00
11525;BME280;5819;49.648;8.330;2023-03-16T02:34:30;100869.81;;;0.71;100.00
11525;BME280;5819;49.648;8.330;2023-03-16T02:36:59;100869.78;;;0.73;100.00
11525;BME280;5819;49.648;8.330;2023-03-16T02:39:29;100875.75;;;0.69;100.00
11525;BME280;5819;49.648;8.330;2023-03-16T02:41:59;100879.16;;;0.66;100.00
11525;BME280;5819;49.648;8.330;2023-03-16T02:44:31;100877.47;;;0.70;100.00
11525;BME280;5819;49.648;8.330;2023-03-16T02:47:08;100877.44;;;0.68;100.00
11525;BME280;5819;49.648;8.330;2023-03-16T02:49:39;100871.50;;;0.68;100.00
11525;BME280;5819;49.648;8.330;2023-03-16T02:52:10;100867.19;;;0.65;100.00
11525;BME280;5819;49.648;8.330;2023-03-16T02:54:38;100864.63;;;0.62;100.00
11525;BME280;5819;49.648;8.330;2023-03-16T02:57:07;100856.09;;;0.62;100.00
11525;BME280;5819;49.648;8.330;2023-03-16T02:59:35;100848.44;;;0.63;100.00
11525;BME280;5819;49.648;8.330;2023-03-16T03:02:05;100856.13;;;0.68;100.00
11525;BME280;5819;49.648;8.330;2023-03-16T03:04:36;100851.84;;;0.67;100.00
11525;BME280;5819;49.648;8.330;2023-03-16T03:07:05;100849.25;;;0.62;100.00
11525;BME280;5819;49.648;8.330;2023-03-16T03:09:49;100854.34;;;0.55;100.00
11525;BME280;5819;49.648;8.330;2023-03-16T03:12:19;100851.81;;;0.61;100.00
11525;BME280;5819;49.648;8.330;2023-03-16T03:14:48;100846.72;;;0.64;100.00
11525;BME280;5819;49.648;8.330;2023-03-16T03:17:20;100849.28;;;0.65;100.00
11525;BME280;5819;49.648;8.330;2023-03-16T03:19:57;100838.19;;;0.60;100.00
11525;BME280;5819;49.648;8.330;2023-03-16T03:22:26;100846.69;;;0.62;100.00
11525;BME280;5819;49.648;8.330;2023-03-16T03:24:54;100848.34;;;0.54;100.00
11525;BME280;5819;49.648;8.330;2023-03-16T03:27:22;100848.25;;;0.36;100.00
11525;BME280;5819;49.648;8.330;2023-03-16T03:29:52;100841.34;;;0.26;100.00
11525;BME280;5819;49.648;8.330;2023-03-16T03:32:21;100842.13;;;0.16;100.00
11525;BME280;5819;49.648;8.330;2023-03-16T03:34:49;100840.41;;;0.12;100.00
11525;BME280;5819;49.648;8.330;2023-03-16T03:37:18;100829.34;;;0.16;100.00
11525;BME280;5819;49.648;8.330;2023-03-16T03:39:46;100830.19;;;0.12;100.00
11525;BME280;5819;49.648;8.330;2023-03-16T03:42:15;100840.44;;;0.18;100.00
11525;BME280;5819;49.648;8.330;2023-03-16T03:44:44;100839.59;;;0.16;100.00
11525;BME280;5819;49.648;8.330;2023-03-16T03:47:12;100834.47;;;0.17;100.00
11525;BME280;5819;49.648;8.330;2023-03-16T03:49:43;100834.47;;;0.17;100.00
11525;BME280;5819;49.648;8.330;2023-03-16T03:52:11;100838.69;;;0.11;100.00
11525;BME280;5819;49.648;8.330;2023-03-16T03:54:39;100835.28;;;0.16;100.00
11525;BME280;5819;49.648;8.330;2023-03-16T03:57:15;100833.66;;;0.23;100.00
11525;BME280;5819;49.648;8.330;2023-03-16T03:59:46;100834.56;;;0.31;100.00
11525;BME280;5819;49.648;8.330;2023-03-16T04:02:19;100832.88;;;0.34;100.00
11525;BME280;5819;49.648;8.330;2023-03-16T04:04:52;100827.78;;;0.36;100.00
11525;BME280;5819;49.648;8.330;2023-03-16T04:07:20;100826.09;;;0.39;100.00
11525;BME280;5819;49.648;8.330;2023-03-16T04:09:52;100820.13;;;0.40;100.00
11525;BME280;5819;49.648;8.330;2023-03-16T04:12:25;100832.06;;;0.38;100.00
11525;BME280;5819;49.648;8.330;2023-03-16T04:14:54;100831.19;;;0.35;100.00
11525;BME280;5819;49.648;8.330;2023-03-16T04:17:23;100826.91;;;0.37;100.00
11525;BME280;5819;49.648;8.330;2023-03-16T04:19:53;100834.63;;;0.40;100.00
11525;BME280;5819;49.648;8.330;2023-03-16T04:22:21;100835.34;;;0.22;100.00
11525;BME280;5819;49.648;8.330;2023-03-16T04:24:49;100831.91;;;0.20;100.00
11525;BME280;5819;49.648;8.330;2023-03-16T04:27:19;100828.59;;;0.30;100.00
11525;BME280;5819;49.648;8.330;2023-03-16T04:29:47;100831.13;;;0.27;100.00
11525;BME280;5819;49.648;8.330;2023-03-16T04:32:15;100836.25;;;0.29;100.00
11525;BME280;5819;49.648;8.330;2023-03-16T04:34:44;100831.94;;;0.25;100.00
11525;BME280;5819;49.648;8.330;2023-03-16T04:37:16;100841.31;;;0.20;100.00
11525;BME280;5819;49.648;8.330;2023-03-16T04:39:45;100834.41;;;0.13;100.00
11525;BME280;5819;49.648;8.330;2023-03-16T04:42:13;100828.44;;;0.11;100.00
11525;BME280;5819;49.648;8.330;2023-03-16T04:44:42;100831.81;;;0.08;100.00
11525;BME280;5819;49.648;8.330;2023-03-16T04:47:14;100829.28;;;0.10;100.00
11525;BME280;5819;49.648;8.330;2023-03-16T04:49:43;100832.69;;;0.09;100.00
11525;BME280;5819;49.648;8.330;2023-03-16T04:52:12;100842.03;;;0.04;100.00
11525;BME280;5819;49.648;8.330;2023-03-16T04:54:41;100845.44;;;0.03;100.00
11525;BME280;5819;49.648;8.330;2023-03-16T04:57:13;100842.88;;;-0.01;100.00
11525;BME280;5819;49.648;8.330;2023-03-16T04:59:47;100836.00;;;-0.03;100.00
11525;BME280;5819;49.648;8.330;2023-03-16T05:02:21;100826.59;;;-0.07;100.00
11525;BME280;5819;49.648;8.330;2023-03-16T05:04:50;100827.53;;;-0.01;100.00
11525;BME280;5819;49.648;8.330;2023-03-16T05:07:18;100825.00;;;0.06;100.00
11525;BME280;5819;49.648;8.330;2023-03-16T05:09:53;100824.97;;;0.03;100.00
11525;BME280;5819;49.648;8.330;2023-03-16T05:12:21;100817.31;;;0.03;100.00
11525;BME280;5819;49.648;8.330;2023-03-16T05:14:53;100822.38;;;-0.02;100.00
11525;BME280;5819;49.648;8.330;2023-03-16T05:17:41;100823.25;;;-0.02;100.00
11525;BME280;5819;49.648;8.330;2023-03-16T05:20:12;100825.84;;;0.03;100.00
11525;BME280;5819;49.648;8.330;2023-03-16T05:22:47;100830.09;;;0.03;100.00
11525;BME280;5819;49.648;8.330;2023-03-16T05:25:23;100819.03;;;0.08;100.00
11525;BME280;5819;49.648;8.330;2023-03-16T05:27:53;100823.28;;;0.05;100.00
11525;BME280;5819;49.648;8.330;2023-03-16T05:30:28;100822.47;;;0.07;100.00
11525;BME280;5819;49.648;8.330;2023-03-16T05:33:00;100823.22;;;-0.05;100.00
11525;BME280;5819;49.648;8.330;2023-03-16T05:35:28;100816.38;;;-0.09;100.00
11525;BME280;5819;49.648;8.330;2023-03-16T05:38:01;100813.78;;;-0.12;100.00
11525;BME280;5819;49.648;8.330;2023-03-16T05:40:35;100807.88;;;-0.03;100.00
11525;BME280;5819;49.648;8.330;2023-03-16T05:43:24;100798.50;;;-0.06;100.00
11525;BME280;5819;49.648;8.330;2023-03-16T05:45:54;100793.44;;;0.02;100.00
11525;BME280;5819;49.648;8.330;2023-03-16T05:48:23;100793.41;;;0.00;100.00
11525;BME280;5819;49.648;8.330;2023-03-16T05:50:55;100791.75;;;0.03;100.00
11525;BME280;5819;49.648;8.330;2023-03-16T05:53:27;100782.38;;;0.05;100.00
11525;BME280;5819;49.648;8.330;2023-03-16T05:56:04;100788.31;;;0.00;100.00
11525;BME280;5819;49.648;8.330;2023-03-16T05:58:36;100787.50;;;0.03;100.00
11525;BME280;5819;49.648;8.330;2023-03-16T06:01:06;100779.00;;;0.07;100.00
11525;BME280;5819;49.648;8.330;2023-03-16T06:03:35;100779.81;;;0.05;100.00
11525;BME280;5819;49.648;8.330;2023-03-16T06:06:05;100777.22;;;-0.02;100.00
11525;BME280;5819;49.648;8.330;2023-03-16T06:08:40;100778.09;;;0.02;100.00
11525;BME280;5819;49.648;8.330;2023-03-16T06:11:12;100772.16;;;0.03;100.00
11525;BME280;5819;49.648;8.330;2023-03-16T06:13:41;100778.16;;;0.11;100.00
11525;BME280;5819;49.648;8.330;2023-03-16T06:16:09;100781.56;;;0.10;100.00
11525;BME280;5819;49.648;8.330;2023-03-16T06:18:39;100785.00;;;0.15;100.00
11525;BME280;5819;49.648;8.330;2023-03-16T06:21:08;100783.31;;;0.20;100.00
11525;BME280;5819;49.648;8.330;2023-03-16T06:23:37;100782.50;;;0.24;100.00
11525;BME280;5819;49.648;8.330;2023-03-16T06:26:07;100785.09;;;0.30;100.00
11525;BME280;5819;49.648;8.330;2023-03-16T06:28:40;100788.50;;;0.28;100.00
11525;BME280;5819;49.648;8.330;2023-03-16T06:31:08;100784.25;;;0.33;100.00
11525;BME280;5819;49.648;8.330;2023-03-16T06:33:42;100785.22;;;0.47;100.00
11525;BME280;5819;49.648;8.330;2023-03-16T06:36:10;100792.13;;;0.66;100.00
11525;BME280;5819;49.648;8.330;2023-03-16T06:38:46;100795.56;;;0.74;100.00
11525;BME280;5819;49.648;8.330;2023-03-16T06:41:24;100799.03;;;0.82;100.00
11525;BME280;5819;49.648;8.330;2023-03-16T06:43:54;100800.78;;;0.97;100.00
11525;BME280;5819;49.648;8.330;2023-03-16T06:46:22;100796.53;;;1.02;100.00
11525;BME280;5819;49.648;8.330;2023-03-16T06:48:51;100802.50;;;0.95;100.00
11525;BME280;5819;49.648;8.330;2023-03-16T06:51:19;100801.63;;;1.01;100.00
11525;BME280;5819;49.648;8.330;2023-03-16T06:53:48;100801.69;;;1.14;100.00
11525;BME280;5819;49.648;8.330;2023-03-16T06:56:17;100797.44;;;1.19;100.00
11525;BME280;5819;49.648;8.330;2023-03-16T06:58:45;100802.59;;;1.24;100.00
11525;BME280;5819;49.648;8.330;2023-03-16T07:01:15;100799.16;;;1.19;100.00
11525;BME280;5819;49.648;8.330;2023-03-16T07:03:43;100793.19;;;1.24;100.00
11525;BME280;5819;49.648;8.330;2023-03-16T07:06:20;100792.31;;;1.18;100.00
11525;BME280;5819;49.648;8.330;2023-03-16T07:08:48;100792.28;;;1.09;100.00
11525;BME280;5819;49.648;8.330;2023-03-16T07:11:18;100796.53;;;1.05;100.00
11525;BME280;5819;49.648;8.330;2023-03-16T07:13:47;100793.16;;;1.11;100.00
11525;BME280;5819;49.648;8.330;2023-03-16T07:16:19;100791.44;;;1.10;100.00
11525;BME280;5819;49.648;8.330;2023-03-16T07:18:47;100792.31;;;1.12;100.00
11525;BME280;5819;49.648;8.330;2023-03-16T07:21:19;100800.03;;;1.24;100.00
11525;BME280;5819;49.648;8.330;2023-03-16T07:23:49;100795.75;;;1.27;100.00
11525;BME280;5819;49.648;8.330;2023-03-16T07:26:23;100796.63;;;1.37;100.00
11525;BME280;5819;49.648;8.330;2023-03-16T07:28:54;100796.63;;;1.45;100.00
11525;BME280;5819;49.648;8.330;2023-03-16T07:31:25;100800.06;;;1.54;100.00
11525;BME280;5819;49.648;8.330;2023-03-16T07:33:56;100803.50;;;1.62;100.00
11525;BME280;5819;49.648;8.330;2023-03-16T07:36:32;100802.66;;;1.77;100.00
11525;BME280;5819;49.648;8.330;2023-03-16T07:39:02;100802.66;;;1.94;100.00
11525;BME280;5819;49.648;8.330;2023-03-16T07:41:33;100799.22;;;2.05;100.00
11525;BME280;5819;49.648;8.330;2023-03-16T07:44:13;100799.25;;;2.08;100.00
11525;BME280;5819;49.648;8.330;2023-03-16T07:46:47;100798.34;;;2.21;100.00
11525;BME280;5819;49.648;8.330;2023-03-16T07:49:15;100797.50;;;2.36;100.00
11525;BME280;5819;49.648;8.330;2023-03-16T07:51:45;100797.44;;;2.50;100.00
11525;BME280;5819;49.648;8.330;2023-03-16T07:54:16;100793.97;;;2.70;100.00
11525;BME280;5819;49.648;8.330;2023-03-16T07:56:44;100795.63;;;2.87;100.00
11525;BME280;5819;49.648;8.330;2023-03-16T07:59:26;100793.03;;;2.90;100.00
11525;BME280;5819;49.648;8.330;2023-03-16T08:01:56;100796.44;;;2.90;100.00
11525;BME280;5819;49.648;8.330;2023-03-16T08:04:24;100799.88;;;2.97;100.00
11525;BME280;5819;49.648;8.330;2023-03-16T08:06:52;100790.34;;;3.17;100.00
11525;BME280;5819;49.648;8.330;2023-03-16T08:09:41;100795.31;;;3.43;100.00
11525;BME280;5819;49.648;8.330;2023-03-16T08:12:13;100784.91;;;3.64;100.00
11525;BME280;5819;49.648;8.330;2023-03-16T08:14:41;100783.94;;;3.77;100.00
11525;BME280;5819;49.648;8.330;2023-03-16T08:17:17;100782.97;;;3.92;100.00
11525;BME280;5819;49.648;8.330;2023-03-16T08:19:48;100775.09;;;4.08;100.00
11525;BME280;5819;49.648;8.330;2023-03-16T08:22:19;100772.88;;;4.54;100.00
11525;BME280;5819;49.648;8.330;2023-03-16T08:24:48;100784.63;;;4.81;100.00
11525;BME280;5819;49.648;8.330;2023-03-16T08:27:18;100779.72;;;5.27;100.00
11525;BME280;5819;49.648;8.330;2023-03-16T08:29:51;100777.53;;;5.58;100.00
11525;BME280;5819;49.648;8.330;2023-03-16T08:32:25;100775.06;;;5.50;97.31
11525;BME280;5819;49.648;8.330;2023-03-16T08:34:53;100770.75;;;5.52;96.38
11525;BME280;5819;49.648;8.330;2023-03-16T08:37:23;100761.53;;;5.35;97.05
11525;BME280;5819;49.648;8.330;2023-03-16T08:39:54;100748.19;;;5.63;97.73
11525;BME280;5819;49.648;8.330;2023-03-16T08:42:21;100748.72;;;5.85;96.57
11525;BME280;5819;49.648;8.330;2023-03-16T08:44:55;100734.78;;;6.86;94.94
11525;BME280;5819;49.648;8.330;2023-03-16T08:47:30;100733.66;;;6.54;90.98
11525;BME280;5819;49.648;8.330;2023-03-16T08:49:58;100735.72;;;6.39;91.49
11525;BME280;5819;49.648;8.330;2023-03-16T08:52:27;100734.97;;;6.32;91.69
11525;BME280;5819;49.648;8.330;2023-03-16T08:54:54;100745.28;;;5.85;94.13
11525;BME280;5819;49.648;8.330;2023-03-16T08:57:29;100740.97;;;6.34;95.31
11525;BME280;5819;49.648;8.330;2023-03-16T08:59:58;100728.69;;;6.87;93.84
11525;BME280;5819;49.648;8.330;2023-03-16T09:02:31;100732.19;;;6.86;91.63
11525;BME280;5819;49.648;8.330;2023-03-16T09:04:59;100746.59;;;6.54;90.72
11525;BME280;5819;49.648;8.330;2023-03-16T09:07:28;100748.75;;;6.33;91.06
11525;BME280;5819;49.648;8.330;2023-03-16T09:09:56;100745.72;;;6.55;90.57
11525;BME280;5819;49.648;8.330;2023-03-16T09:12:23;100739.00;;;6.88;91.75
11525;BME280;5819;49.648;8.330;2023-03-16T09:14:52;100733.59;;;6.99;89.24
11525;BME280;5819;49.648;8.330;2023-03-16T09:17:20;100729.28;;;7.01;87.99
11525;BME280;5819;49.648;8.330;2023-03-16T09:19:50;100725.00;;;7.37;88.04
11525;BME280;5819;49.648;8.330;2023-03-16T09:22:22;100727.88;;;7.23;88.91
11525;BME280;5819;49.648;8.330;2023-03-16T09:24:51;100713.59;;;7.44;88.91
11525;BME280;5819;49.648;8.330;2023-03-16T09:27:19;100714.66;;;7.35;87.39
11525;BME280;5819;49.648;8.330;2023-03-16T09:29:48;100709.41;;;7.38;87.92
11525;BME280;5819;49.648;8.330;2023-03-16T09:32:16;100702.50;;;7.39;88.72
11525;BME280;5819;49.648;8.330;2023-03-16T09:34:44;100708.75;;;7.30;88.34
11525;BME280;5819;49.648;8.330;2023-03-16T09:37:14;100703.44;;;7.36;88.18
11525;BME280;5819;49.648;8.330;2023-03-16T09:39:41;100701.94;;;7.26;86.42
11525;BME280;5819;49.648;8.330;2023-03-16T09:42:16;100709.56;;;7.32;88.37
11525;BME280;5819;49.648;8.330;2023-03-16T09:44:55;100709.69;;;7.28;88.55
11525;BME280;5819;49.648;8.330;2023-03-16T09:47:28;100706.63;;;7.47;86.58
11525;BME280;5819;49.648;8.330;2023-03-16T09:49:59;100701.81;;;7.68;86.05
11525;BME280;5819;49.648;8.330;2023-03-16T09:52:38;100705.69;;;7.85;85.40
11525;BME280;5819;49.648;8.330;2023-03-16T09:55:22;100693.66;;;8.15;83.91
11525;BME280;5819;49.648;8.330;2023-03-16T09:57:54;100690.50;;;8.36;83.69
11525;BME280;5819;49.648;8.330;2023-03-16T10:00:26;100677.44;;;8.41;83.18
11525;BME280;5819;49.648;8.330;2023-03-16T10:03:05;100678.69;;;8.57;84.85
11525;BME280;5819;49.648;8.330;2023-03-16T10:05:37;100666.53;;;8.30;81.23
11525;BME280;5819;49.648;8.330;2023-03-16T10:08:12;100663.50;;;8.45;84.52
11525;BME280;5819;49.648;8.330;2023-03-16T10:10:54;100658.56;;;8.65;79.82
11525;BME280;5819;49.648;8.330;2023-03-16T10:13:31;100659.81;;;8.81;80.59
11525;BME280;5819;49.648;8.330;2023-03-16T10:16:05;100663.13;;;9.14;79.32
11525;BME280;5819;49.648;8.330;2023-03-16T10:18:40;100654.63;;;9.35;79.79
11525;BME280;5819;49.648;8.330;2023-03-16T10:21:11;100649.06;;;9.20;76.14
11525;BME280;5819;49.648;8.330;2023-03-16T10:23:42;100647.56;;;9.39;75.06
11525;BME280;5819;49.648;8.330;2023-03-16T10:26:17;100646.88;;;9.60;74.31
11525;BME280;5819;49.648;8.330;2023-03-16T10:28:48;100640.50;;;9.70;73.98
11525;BME280;5819;49.648;8.330;2023-03-16T10:31:19;100649.72;;;9.53;73.07
11525;BME280;5819;49.648;8.330;2023-03-16T10:33:50;100643.75;;;9.51;74.31
11525;BME280;5819;49.648;8.330;2023-03-16T10:36:24;100647.09;;;9.79;76.73
11525;BME280;5819;49.648;8.330;2023-03-16T10:38:58;100644.94;;;10.16;73.67
11525;BME280;5819;49.648;8.330;2023-03-16T10:41:30;100641.97;;;10.02;72.98
11525;BME280;5819;49.648;8.330;2023-03-16T10:44:01;100654.66;;;9.86;73.35
11525;BME280;5819;49.648;8.330;2023-03-16T10:46:37;100649.28;;;9.66;73.35
11525;BME280;5819;49.648;8.330;2023-03-16T10:49:19;100654.75;;;9.59;74.83
11525;BME280;5819;49.648;8.330;2023-03-16T10:51:48;100643.94;;;9.45;74.31
11525;BME280;5819;49.648;8.330;2023-03-16T10:54:25;100638.38;;;9.30;74.20
11525;BME280;5819;49.648;8.330;2023-03-16T10:56:53;100624.28;;;9.87;75.35
11525;BME280;5819;49.648;8.330;2023-03-16T10:59:28;100627.66;;;9.66;71.12
11525;BME280;5819;49.648;8.330;2023-03-16T11:01:58;100646.50;;;9.71;73.35
11525;BME280;5819;49.648;8.330;2023-03-16T11:04:30;100637.19;;;9.90;72.68
11525;BME280;5819;49.648;8.330;2023-03-16T11:06:59;100629.34;;;10.16;70.85
11525;BME280;5819;49.648;8.330;2023-03-16T11:09:32;100621.22;;;10.01;72.05
11525;BME280;5819;49.648;8.330;2023-03-16T11:12:12;100624.56;;;9.79;70.34
11525;BME280;5819;49.648;8.330;2023-03-16T11:14:42;100618.72;;;9.98;72.24
11525;BME280;5819;49.648;8.330;2023-03-16T11:17:13;100600.38;;;10.27;69.61
11525;BME280;5819;49.648;8.330;2023-03-16T11:19:49;100608.38;;;10.21;70.64
11525;BME280;5819;49.648;8.330;2023-03-16T11:22:20;100603.56;;;10.33;71.81
11525;BME280;5819;49.648;8.330;2023-03-16T11:24:53;100595.78;;;10.33;70.71
11525;BME280;5819;49.648;8.330;2023-03-16T11:27:24;100603.56;;;9.85;70.80
11525;BME280;5819;49.648;8.330;2023-03-16T11:30:04;100601.25;;;9.78;70.57
11525;BME280;5819;49.648;8.330;2023-03-16T11:32:37;100598.19;;;9.67;72.93
11525;BME280;5819;49.648;8.330;2023-03-16T11:35:14;100611.09;;;9.68;72.33
11525;BME280;5819;49.648;8.330;2023-03-16T11:38:07;100608.47;;;9.70;71.12
11525;BME280;5819;49.648;8.330;2023-03-16T11:40:47;100608.78;;;9.61;71.29
11525;BME280;5819;49.648;8.330;2023-03-16T11:43:49;100597.75;;;9.54;72.54
11525;BME280;5819;49.648;8.330;2023-03-16T11:46:21;100598.41;;;9.84;72.06
11525;BME280;5819;49.648;8.330;2023-03-16T11:49:00;100576.69;;;9.86;70.79
11525;BME280;5819;49.648;8.330;2023-03-16T11:51:46;100572.38;;;10.10;71.32
11525;BME280;5819;49.648;8.330;2023-03-16T11:54:38;100561.88;;;10.58;69.75
11525;BME280;5819;49.648;8.330;2023-03-16T11:57:26;100558.19;;;10.64;70.28
11525;BME280;5819;49.648;8.330;2023-03-16T12:00:06;100545.78;;;11.12;70.43
11525;BME280;5819;49.648;8.330;2023-03-16T12:02:47;100531.59;;;11.40;68.36
11525;BME280;5819;49.648;8.330;2023-03-16T12:05:40;100516.47;;;12.07;64.96
11525;BME280;5819;49.648;8.330;2023-03-16T12:08:24;100514.63;;;12.09;65.23
11525;BME280;5819;49.648;8.330;2023-03-16T12:10:58;100511.28;;;12.07;65.44
11525;BME280;5819;49.648;8.330;2023-03-16T12:13:36;100518.31;;;11.86;64.95
11525;BME280;5819;49.648;8.330;2023-03-16T12:16:14;100521.59;;;11.51;66.17
11525;BME280;5819;49.648;8.330;2023-03-16T12:18:47;100529.41;;;11.31;67.28
11525;BME280;5819;49.648;8.330;2023-03-16T12:21:21;100518.91;;;11.32;66.87
11525;BME280;5819;49.648;8.330;2023-03-16T12:23:52;100504.84;;;11.95;65.74
11525;BME280;5819;49.648;8.330;2023-03-16T12:26:23;100502.03;;;11.61;64.66
11525;BME280;5819;49.648;8.330;2023-03-16T12:28:56;100499.56;;;12.15;64.25
11525;BME280;5819;49.648;8.330;2023-03-16T12:31:30;100485.34;;;12.76;63.28
11525;BME280;5819;49.648;8.330;2023-03-16T12:34:08;100496.47;;;12.62;63.32
11525;BME280;5819;49.648;8.330;2023-03-16T12:36:54;100508.63;;;12.44;63.28
11525;BME280;5819;49.648;8.330;2023-03-16T12:39:44;100503.66;;;12.57;63.64
11525;BME280;5819;49.648;8.330;2023-03-16T12:42:29;100495.63;;;12.07;62.80
11525;BME280;5819;49.648;8.330;2023-03-16T12:45:08;100477.31;;;12.44;62.52
11525;BME280;5819;49.648;8.330;2023-03-16T12:47:47;100471.75;;;12.69;61.97
11525;BME280;5819;49.648;8.330;2023-03-16T12:50:18;100461.63;;;12.97;62.13
11525;BME280;5819;49.648;8.330;2023-03-16T12:52:48;100447.25;;;13.06;59.74
11525;BME280;5819;49.648;8.330;2023-03-16T12:55:19;100447.09;;;13.43;59.94
11525;BME280;5819;49.648;8.330;2023-03-16T12:57:48;100442.28;;;13.19;58.53
11525;BME280;5819;49.648;8.330;2023-03-16T13:00:20;100441.66;;;13.13;60.64
11525;BME280;5819;49.648;8.330;2023-03-16T13:03:01;100434.31;;;13.37;59.25
11525;BME280;5819;49.648;8.330;2023-03-16T13:05:32;100435.28;;;12.85;58.36
11525;BME280;5819;49.648;8.330;2023-03-16T13:08:07;100432.81;;;13.16;60.37
11525;BME280;5819;49.648;8.330;2023-03-16T13:10:35;100427.69;;;13.15;58.00
11525;BME280;5819;49.648;8.330;2023-03-16T13:13:08;100431.38;;;12.76;59.52
11525;BME280;5819;49.648;8.330;2023-03-16T13:18:37;100421.09;;;12.73;60.66
11525;BME280;5819;49.648;8.330;2023-03-16T13:21:15;100416.44;;;13.30;60.74
11525;BME280;5819;49.648;8.330;2023-03-16T13:24:11;100408.81;;;13.42;59.75
11525;BME280;5819;49.648;8.330;2023-03-16T13:26:42;100408.00;;;13.73;58.17
11525;BME280;5819;49.648;8.330;2023-03-16T13:29:20;100399.91;;;13.78;58.69
11525;BME280;5819;49.648;8.330;2023-03-16T13:31:50;100389.25;;;13.96;57.13
11525;BME280;5819;49.648;8.330;2023-03-16T13:34:22;100389.19;;;13.51;57.31